sensor_id;sensor_type;location;lat;lon;timestamp;pressure;altitude;pressure_sealevel;temperature;humidity
54910;BME280;63189;51.240;9.964;2023-03-14T00:01:32;95593.63;;;8.92;100.00
54910;BME280;63189;51.240;9.964;2023-03-14T00:03:58;95600.41;;;8.95;100.00
54910;BME280;63189;51.240;9.964;2023-03-14T00:06:24;95589.56;;;8.88;100.00
54910;BME280;63189;51.240;9.964;2023-03-14T00:08:50;95578.91;;;8.79;100.00
54910;BME280;63189;51.240;9.964;2023-03-14T00:11:19;95609.97;;;8.94;100.00
54910;BME280;63189;51.240;9.964;2023-03-14T00:13:49;95605.72;;;8.79;100.00
54910;BME280;63189;51.240;9.964;2023-03-14T00:16:14;95628.53;;;8.88;100.00
54910;BME280;63189;51.240;9.964;2023-03-14T00:18:40;95642.72;;;8.83;100.00
54910;BME280;63189;51.240;9.964;2023-03-14T00:21:07;95656.66;;;8.82;100.00
54910;BME280;63189;51.240;9.964;2023-03-14T00:23:34;95667.88;;;8.82;100.00
54910;BME280;63189;51.240;9.964;2023-03-14T00:26:01;95663.41;;;8.70;100.00
54910;BME280;63189;51.240;9.964;2023-03-14T00:28:27;95691.72;;;8.75;100.00
54910;BME280;63189;51.240;9.964;2023-03-14T00:30:53;95674.00;;;8.67;100.00
54910;BME280;63189;51.240;9.964;2023-03-14T00:33:18;95690.72;;;8.77;100.00
54910;BME280;63189;51.240;9.964;2023-03-14T00:35:52;95701.66;;;8.68;100.00
54910;BME280;63189;51.240;9.964;2023-03-14T00:38:17;95741.16;;;8.73;100.00
54910;BME280;63189;51.240;9.964;2023-03-14T00:40:42;95735.97;;;8.73;100.00
54910;BME280;63189;51.240;9.964;2023-03-14T00:43:08;95719.44;;;8.74;100.00
54910;BME280;63189;51.240;9.964;2023-03-14T00:45:33;95683.34;;;8.55;100.00
54910;BME280;63189;51.240;9.964;2023-03-14T00:48:00;95729.59;;;8.79;100.00
54910;BME280;63189;51.240;9.964;2023-03-14T00:50:25;95726.91;;;8.80;100.00
54910;BME280;63189;51.240;9.964;2023-03-14T00:52:50;95727.25;;;8.74;100.00
54910;BME280;63189;51.240;9.964;2023-03-14T00:55:16;95720.97;;;8.78;100.00
54910;BME280;63189;51.240;9.964;2023-03-14T00:57:41;95717.63;;;8.76;100.00
54910;BME280;63189;51.240;9.964;2023-03-14T01:00:07;95657.63;;;8.51;100.00
54910;BME280;63189;51.240;9.964;2023-03-14T01:02:35;95704.44;;;8.79;100.00
54910;BME280;63189;51.240;9.964;2023-03-14T01:05:01;95688.28;;;8.74;100.00
54910;BME280;63189;51.240;9.964;2023-03-14T01:07:26;95667.13;;;8.66;100.00
54910;BME280;63189;51.240;9.964;2023-03-14T01:09:52;95704.44;;;8.79;100.00
54910;BME280;63189;51.240;9.964;2023-03-14T01:12:18;95689.41;;;8.70;100.00
54910;BME280;63189;51.240;9.964;2023-03-14T01:14:43;95696.75;;;8.78;100.00
54910;BME280;63189;51.240;9.964;2023-03-14T01:17:08;95684.41;;;8.81;100.00
54910;BME280;63189;51.240;9.964;2023-03-14T01:19:34;95686.34;;;8.78;100.00
54910;BME280;63189;51.240;9.964;2023-03-14T01:21:59;95693.84;;;8.82;100.00
54910;BME280;63189;51.240;9.964;2023-03-14T01:24:24;95686.06;;;8.82;100.00
54910;BME280;63189;51.240;9.964;2023-03-14T01:26:50;95643.38;;;8.58;100.00
54910;BME280;63189;51.240;9.964;2023-03-14T01:29:15;95666.03;;;8.70;100.00
54910;BME280;63189;51.240;9.964;2023-03-14T01:31:40;95679.69;;;8.88;100.00
54910;BME280;63189;51.240;9.964;2023-03-14T01:34:09;95640.97;;;8.69;100.00
54910;BME280;63189;51.240;9.964;2023-03-14T01:36:34;95646.66;;;8.76;100.00
54910;BME280;63189;51.240;9.964;2023-03-14T01:38:59;95669.28;;;8.88;100.00
54910;BME280;63189;51.240;9.964;2023-03-14T01:41:26;95664.00;;;8.89;100.00
54910;BME280;63189;51.240;9.964;2023-03-14T01:43:52;95653.94;;;8.83;100.00
54910;BME280;63189;51.240;9.964;2023-03-14T01:46:25;95668.81;;;8.95;100.00
54910;BME280;63189;51.240;9.964;2023-03-14T01:48:59;95665.31;;;8.96;100.00
54910;BME280;63189;51.240;9.964;2023-03-14T01:51:38;95628.81;;;8.84;100.00
54910;BME280;63189;51.240;9.964;2023-03-14T01:56:56;95610.00;;;8.66;100.00
54910;BME280;63189;51.240;9.964;2023-03-14T01:59:22;95645.81;;;8.89;100.00
54910;BME280;63189;51.240;9.964;2023-03-14T02:01:50;95598.66;;;8.67;100.00
54910;BME280;63189;51.240;9.964;2023-03-14T02:04:17;95639.47;;;8.93;100.00
54910;BME280;63189;51.240;9.964;2023-03-14T02:07:00;95609.63;;;8.86;100.00
54910;BME280;63189;51.240;9.964;2023-03-14T02:09:28;95586.50;;;8.67;100.00
54910;BME280;63189;51.240;9.964;2023-03-14T02:11:55;95617.22;;;8.89;100.00
54910;BME280;63189;51.240;9.964;2023-03-14T02:14:27;95606.44;;;8.95;100.00
54910;BME280;63189;51.240;9.964;2023-03-14T02:16:53;95600.78;;;8.89;100.00
54910;BME280;63189;51.240;9.964;2023-03-14T02:19:26;95625.94;;;8.88;100.00
54910;BME280;63189;51.240;9.964;2023-03-14T02:22:03;95624.91;;;8.91;100.00
54910;BME280;63189;51.240;9.964;2023-03-14T02:27:18;95627.41;;;8.92;100.00
54910;BME280;63189;51.240;9.964;2023-03-14T02:29:54;95598.28;;;8.87;100.00
54910;BME280;63189;51.240;9.964;2023-03-14T02:32:22;95603.00;;;8.95;100.00
54910;BME280;63189;51.240;9.964;2023-03-14T02:34:51;95577.59;;;8.86;100.00
54910;BME280;63189;51.240;9.964;2023-03-14T02:37:19;95592.06;;;8.90;100.00
54910;BME280;63189;51.240;9.964;2023-03-14T02:39:46;95589.28;;;8.79;100.00
54910;BME280;63189;51.240;9.964;2023-03-14T02:42:14;95561.94;;;8.59;100.00
54910;BME280;63189;51.240;9.964;2023-03-14T02:47:31;95584.72;;;8.82;100.00
54910;BME280;63189;51.240;9.964;2023-03-14T02:50:04;95576.56;;;8.74;100.00
54910;BME280;63189;51.240;9.964;2023-03-14T02:52:30;95578.06;;;8.78;100.00
54910;BME280;63189;51.240;9.964;2023-03-14T02:54:55;95576.41;;;8.77;100.00
54910;BME280;63189;51.240;9.964;2023-03-14T02:57:21;95529.19;;;8.56;100.00
54910;BME280;63189;51.240;9.964;2023-03-14T02:59:46;95556.34;;;8.79;100.00
54910;BME280;63189;51.240;9.964;2023-03-14T03:02:11;95559.16;;;8.76;100.00
54910;BME280;63189;51.240;9.964;2023-03-14T03:04:36;95554.31;;;8.70;100.00
54910;BME280;63189;51.240;9.964;2023-03-14T03:07:02;95565.91;;;8.79;100.00
54910;BME280;63189;51.240;9.964;2023-03-14T03:09:27;95561.91;;;8.87;100.00
54910;BME280;63189;51.240;9.964;2023-03-14T03:11:52;95567.00;;;8.89;100.00
54910;BME280;63189;51.240;9.964;2023-03-14T03:14:18;95534.56;;;8.67;100.00
54910;BME280;63189;51.240;9.964;2023-03-14T03:16:43;95535.09;;;8.87;100.00
54910;BME280;63189;51.240;9.964;2023-03-14T03:19:08;95505.00;;;8.56;100.00
54910;BME280;63189;51.240;9.964;2023-03-14T03:21:34;95544.75;;;8.71;100.00
54910;BME280;63189;51.240;9.964;2023-03-14T03:24:00;95529.38;;;8.67;100.00
54910;BME280;63189;51.240;9.964;2023-03-14T03:26:25;95519.06;;;8.52;100.00
54910;BME280;63189;51.240;9.964;2023-03-14T03:28:51;95525.75;;;8.56;100.00
54910;BME280;63189;51.240;9.964;2023-03-14T03:31:16;95526.31;;;8.61;100.00
54910;BME280;63189;51.240;9.964;2023-03-14T03:33:42;95538.19;;;8.65;100.00
54910;BME280;63189;51.240;9.964;2023-03-14T03:36:08;95538.09;;;8.66;100.00
54910;BME280;63189;51.240;9.964;2023-03-14T03:38:33;95523.72;;;8.61;100.00
54910;BME280;63189;51.240;9.964;2023-03-14T03:41:02;95539.75;;;8.67;100.00
54910;BME280;63189;51.240;9.964;2023-03-14T03:43:27;95517.88;;;8.57;100.00
54910;BME280;63189;51.240;9.964;2023-03-14T03:45:53;95528.53;;;8.67;100.00
54910;BME280;63189;51.240;9.964;2023-03-14T03:48:18;95506.25;;;8.63;100.00
54910;BME280;63189;51.240;9.964;2023-03-14T03:50:45;95512.84;;;8.68;100.00
54910;BME280;63189;51.240;9.964;2023-03-14T03:53:10;95514.97;;;8.62;100.00
54910;BME280;63189;51.240;9.964;2023-03-14T03:55:36;95521.06;;;8.75;100.00
54910;BME280;63189;51.240;9.964;2023-03-14T03:58:01;95500.63;;;8.56;100.00
54910;BME280;63189;51.240;9.964;2023-03-14T04:00:27;95522.59;;;8.65;100.00
54910;BME280;63189;51.240;9.964;2023-03-14T04:02:52;95525.09;;;8.66;99.59
54910;BME280;63189;51.240;9.964;2023-03-14T04:05:17;95525.00;;;8.68;100.00
54910;BME280;63189;51.240;9.964;2023-03-14T04:07:43;95510.63;;;8.62;99.18
54910;BME280;63189;51.240;9.964;2023-03-14T04:10:09;95535.94;;;8.73;99.65
54910;BME280;63189;51.240;9.964;2023-03-14T04:12:34;95514.63;;;8.68;99.30
54910;BME280;63189;51.240;9.964;2023-03-14T04:15:00;95512.75;;;8.70;98.85
54910;BME280;63189;51.240;9.964;2023-03-14T04:17:25;95512.56;;;8.73;98.28
54910;BME280;63189;51.240;9.964;2023-03-14T04:19:50;95520.91;;;8.78;97.45
54910;BME280;63189;51.240;9.964;2023-03-14T04:22:18;95497.06;;;8.72;97.85
54910;BME280;63189;51.240;9.964;2023-03-14T04:24:43;95500.41;;;8.74;97.64
54910;BME280;63189;51.240;9.964;2023-03-14T04:27:08;95499.47;;;8.75;96.06
54910;BME280;63189;51.240;9.964;2023-03-14T04:29:34;95499.03;;;8.68;96.49
54910;BME280;63189;51.240;9.964;2023-03-14T04:31:59;95507.34;;;8.73;96.34
54910;BME280;63189;51.240;9.964;2023-03-14T04:34:24;95499.03;;;8.68;96.25
54910;BME280;63189;51.240;9.964;2023-03-14T04:36:50;95461.41;;;8.47;96.08
54910;BME280;63189;51.240;9.964;2023-03-14T04:39:15;95493.44;;;8.74;96.36
54910;BME280;63189;51.240;9.964;2023-03-14T04:41:40;95483.25;;;8.71;96.99
54910;BME280;63189;51.240;9.964;2023-03-14T04:44:08;95472.50;;;8.63;96.57
54910;BME280;63189;51.240;9.964;2023-03-14T04:46:34;95495.31;;;8.72;95.98
54910;BME280;63189;51.240;9.964;2023-03-14T04:48:59;95482.41;;;8.71;96.30
54910;BME280;63189;51.240;9.964;2023-03-14T04:51:24;95483.25;;;8.71;96.13
54910;BME280;63189;51.240;9.964;2023-03-14T04:53:52;95474.09;;;8.51;96.03
54910;BME280;63189;51.240;9.964;2023-03-14T04:56:18;95494.03;;;8.65;96.21
54910;BME280;63189;51.240;9.964;2023-03-14T04:58:43;95484.94;;;8.58;95.57
54910;BME280;63189;51.240;9.964;2023-03-14T05:01:09;95459.06;;;8.42;96.64
54910;BME280;63189;51.240;9.964;2023-03-14T05:03:35;95478.28;;;8.39;96.17
54910;BME280;63189;51.240;9.964;2023-03-14T05:06:02;95479.38;;;8.50;96.08
54910;BME280;63189;51.240;9.964;2023-03-14T05:08:28;95483.19;;;8.58;96.58
54910;BME280;63189;51.240;9.964;2023-03-14T05:10:54;95485.22;;;8.53;96.78
54910;BME280;63189;51.240;9.964;2023-03-14T05:13:20;95463.03;;;8.33;95.88
54910;BME280;63189;51.240;9.964;2023-03-14T05:15:45;95473.06;;;8.54;96.40
54910;BME280;63189;51.240;9.964;2023-03-14T05:18:10;95487.06;;;8.51;95.88
54910;BME280;63189;51.240;9.964;2023-03-14T05:20:36;95478.75;;;8.46;95.86
54910;BME280;63189;51.240;9.964;2023-03-14T05:23:01;95463.03;;;8.33;96.14
54910;BME280;63189;51.240;9.964;2023-03-14T05:25:26;95513.78;;;8.53;95.90
54910;BME280;63189;51.240;9.964;2023-03-14T05:27:55;95516.66;;;8.49;96.64
54910;BME280;63189;51.240;9.964;2023-03-14T05:30:20;95498.84;;;8.43;96.63
54910;BME280;63189;51.240;9.964;2023-03-14T05:32:47;95513.34;;;8.47;96.70
54910;BME280;63189;51.240;9.964;2023-03-14T05:35:12;95514.28;;;8.46;96.63
54910;BME280;63189;51.240;9.964;2023-03-14T05:37:37;95499.25;;;8.36;97.23
54910;BME280;63189;51.240;9.964;2023-03-14T05:40:04;95512.59;;;8.45;96.63
54910;BME280;63189;51.240;9.964;2023-03-14T05:42:31;95511.94;;;8.41;95.97
54910;BME280;63189;51.240;9.964;2023-03-14T05:44:57;95509.25;;;8.43;96.00
54910;BME280;63189;51.240;9.964;2023-03-14T05:47:22;95491.16;;;8.27;96.33
54910;BME280;63189;51.240;9.964;2023-03-14T05:49:47;95497.38;;;8.38;95.30
54910;BME280;63189;51.240;9.964;2023-03-14T05:52:14;95500.31;;;8.32;95.32
54910;BME280;63189;51.240;9.964;2023-03-14T05:54:40;95485.59;;;8.19;95.46
54910;BME280;63189;51.240;9.964;2023-03-14T05:57:06;95517.09;;;8.27;95.60
54910;BME280;63189;51.240;9.964;2023-03-14T05:59:31;95517.56;;;8.33;95.29
54910;BME280;63189;51.240;9.964;2023-03-14T06:01:57;95489.22;;;8.16;95.41
54910;BME280;63189;51.240;9.964;2023-03-14T06:04:22;95488.47;;;8.14;95.61
54910;BME280;63189;51.240;9.964;2023-03-14T06:06:47;95509.97;;;8.30;95.59
54910;BME280;63189;51.240;9.964;2023-03-14T06:09:13;95516.59;;;8.36;96.34
54910;BME280;63189;51.240;9.964;2023-03-14T06:11:38;95512.03;;;8.39;96.55
54910;BME280;63189;51.240;9.964;2023-03-14T06:14:03;95509.63;;;8.36;96.53
54910;BME280;63189;51.240;9.964;2023-03-14T06:16:29;95490.34;;;8.41;96.36
54910;BME280;63189;51.240;9.964;2023-03-14T06:18:54;95497.84;;;8.45;96.68
54910;BME280;63189;51.240;9.964;2023-03-14T06:21:19;95495.31;;;8.44;96.08
54910;BME280;63189;51.240;9.964;2023-03-14T06:23:45;95485.88;;;8.43;96.82
54910;BME280;63189;51.240;9.964;2023-03-14T06:26:10;95479.94;;;8.41;96.50
54910;BME280;63189;51.240;9.964;2023-03-14T06:28:39;95485.03;;;8.42;97.06
54910;BME280;63189;51.240;9.964;2023-03-14T06:31:04;95431.81;;;8.21;97.08
54910;BME280;63189;51.240;9.964;2023-03-14T06:33:30;95470.28;;;8.43;97.42
54910;BME280;63189;51.240;9.964;2023-03-14T06:35:55;95453.59;;;8.32;98.20
54910;BME280;63189;51.240;9.964;2023-03-14T06:38:21;95467.69;;;8.43;99.61
54910;BME280;63189;51.240;9.964;2023-03-14T06:40:46;95470.59;;;8.38;100.00
54910;BME280;63189;51.240;9.964;2023-03-14T06:43:11;95463.72;;;8.37;100.00
54910;BME280;63189;51.240;9.964;2023-03-14T06:45:37;95442.88;;;8.38;100.00
54910;BME280;63189;51.240;9.964;2023-03-14T06:48:02;95448.31;;;8.34;100.00
54910;BME280;63189;51.240;9.964;2023-03-14T06:50:28;95443.59;;;8.41;100.00
54910;BME280;63189;51.240;9.964;2023-03-14T06:52:53;95454.19;;;8.37;98.97
54910;BME280;63189;51.240;9.964;2023-03-14T06:55:18;95468.38;;;8.46;99.64
54910;BME280;63189;51.240;9.964;2023-03-14T06:57:44;95455.28;;;8.48;98.53
54910;BME280;63189;51.240;9.964;2023-03-14T07:00:11;95461.78;;;8.55;99.24
54910;BME280;63189;51.240;9.964;2023-03-14T07:02:36;95445.31;;;8.54;98.41
54910;BME280;63189;51.240;9.964;2023-03-14T07:05:02;95437.47;;;8.56;97.71
54910;BME280;63189;51.240;9.964;2023-03-14T07:07:28;95453.69;;;8.59;97.89
54910;BME280;63189;51.240;9.964;2023-03-14T07:09:53;95434.78;;;8.57;97.11
54910;BME280;63189;51.240;9.964;2023-03-14T07:12:19;95419.13;;;8.45;96.91
54910;BME280;63189;51.240;9.964;2023-03-14T07:14:44;95449.78;;;8.66;96.70
54910;BME280;63189;51.240;9.964;2023-03-14T07:17:10;95416.75;;;8.54;96.68
54910;BME280;63189;51.240;9.964;2023-03-14T07:19:35;95439.19;;;8.70;96.58
54910;BME280;63189;51.240;9.964;2023-03-14T07:22:00;95446.16;;;8.69;96.19
54910;BME280;63189;51.240;9.964;2023-03-14T07:24:26;95453.75;;;8.72;96.47
54910;BME280;63189;51.240;9.964;2023-03-14T07:26:52;95439.19;;;8.70;96.33
54910;BME280;63189;51.240;9.964;2023-03-14T07:29:17;95456.06;;;8.77;96.03
54910;BME280;63189;51.240;9.964;2023-03-14T07:31:42;95428.59;;;8.73;95.92
54910;BME280;63189;51.240;9.964;2023-03-14T07:34:08;95459.28;;;8.80;95.47
54910;BME280;63189;51.240;9.964;2023-03-14T07:36:33;95401.56;;;8.75;96.11
54910;BME280;63189;51.240;9.964;2023-03-14T07:38:58;95423.25;;;8.88;95.88
54910;BME280;63189;51.240;9.964;2023-03-14T07:41:24;95407.94;;;8.84;95.68
54910;BME280;63189;51.240;9.964;2023-03-14T07:43:49;95414.53;;;8.89;95.92
54910;BME280;63189;51.240;9.964;2023-03-14T07:46:15;95416.41;;;8.87;94.92
54910;BME280;63189;51.240;9.964;2023-03-14T07:48:40;95429.13;;;9.05;95.39
54910;BME280;63189;51.240;9.964;2023-03-14T07:51:06;95450.16;;;9.14;94.64
54910;BME280;63189;51.240;9.964;2023-03-14T07:53:32;95439.72;;;9.02;94.80
54910;BME280;63189;51.240;9.964;2023-03-14T07:55:57;95428.06;;;8.94;96.20
54910;BME280;63189;51.240;9.964;2023-03-14T07:58:23;95442.19;;;8.90;96.62
54910;BME280;63189;51.240;9.964;2023-03-14T08:00:49;95438.31;;;8.83;98.64
54910;BME280;63189;51.240;9.964;2023-03-14T08:03:14;95424.22;;;8.73;99.12
54910;BME280;63189;51.240;9.964;2023-03-14T08:05:40;95431.91;;;8.75;99.94
54910;BME280;63189;51.240;9.964;2023-03-14T08:08:07;95431.50;;;8.68;100.00
54910;BME280;63189;51.240;9.964;2023-03-14T08:10:32;95402.09;;;8.53;100.00
54910;BME280;63189;51.240;9.964;2023-03-14T08:12:59;95436.63;;;8.55;100.00
54910;BME280;63189;51.240;9.964;2023-03-14T08:15:26;95431.66;;;8.38;100.00
54910;BME280;63189;51.240;9.964;2023-03-14T08:17:52;95433.00;;;8.44;100.00
54910;BME280;63189;51.240;9.964;2023-03-14T08:20:19;95442.56;;;8.43;100.00
54910;BME280;63189;51.240;9.964;2023-03-14T08:22:45;95450.44;;;8.42;100.00
54910;BME280;63189;51.240;9.964;2023-03-14T08:25:10;95450.81;;;8.50;100.00
54910;BME280;63189;51.240;9.964;2023-03-14T08:27:36;95458.72;;;8.48;100.00
54910;BME280;63189;51.240;9.964;2023-03-14T08:30:08;95447.59;;;8.46;100.00
54910;BME280;63189;51.240;9.964;2023-03-14T08:32:34;95460.06;;;8.54;100.00
54910;BME280;63189;51.240;9.964;2023-03-14T08:34:59;95452.78;;;8.46;100.00
54910;BME280;63189;51.240;9.964;2023-03-14T08:37:25;95486.97;;;8.53;100.00
54910;BME280;63189;51.240;9.964;2023-03-14T08:39:51;95461.41;;;8.47;100.00
54910;BME280;63189;51.240;9.964;2023-03-14T08:42:16;95434.97;;;8.26;100.00
54910;BME280;63189;51.240;9.964;2023-03-14T08:44:42;95469.00;;;8.50;100.00
54910;BME280;63189;51.240;9.964;2023-03-14T08:47:07;95484.56;;;8.50;100.00
54910;BME280;63189;51.240;9.964;2023-03-14T08:49:33;95454.25;;;8.22;100.00
54910;BME280;63189;51.240;9.964;2023-03-14T08:51:58;95480.69;;;8.43;100.00
54910;BME280;63189;51.240;9.964;2023-03-14T08:54:24;95464.38;;;8.41;100.00
54910;BME280;63189;51.240;9.964;2023-03-14T08:56:49;95489.41;;;8.56;100.00
54910;BME280;63189;51.240;9.964;2023-03-14T08:59:14;95495.03;;;8.62;100.00
54910;BME280;63189;51.240;9.964;2023-03-14T09:01:40;95482.16;;;8.61;100.00
54910;BME280;63189;51.240;9.964;2023-03-14T09:04:05;95452.31;;;8.39;100.00
54910;BME280;63189;51.240;9.964;2023-03-14T09:06:32;95478.09;;;8.57;100.00
54910;BME280;63189;51.240;9.964;2023-03-14T09:08:57;95475.28;;;8.60;100.00
54910;BME280;63189;51.240;9.964;2023-03-14T09:11:22;95477.41;;;8.67;100.00
54910;BME280;63189;51.240;9.964;2023-03-14T09:13:48;95472.13;;;8.69;100.00
54910;BME280;63189;51.240;9.964;2023-03-14T09:16:14;95478.59;;;8.76;100.00
54910;BME280;63189;51.240;9.964;2023-03-14T09:18:39;95474.31;;;8.75;100.00
54910;BME280;63189;51.240;9.964;2023-03-14T09:21:05;95484.81;;;8.74;100.00
54910;BME280;63189;51.240;9.964;2023-03-14T09:23:30;95474.72;;;8.69;100.00
54910;BME280;63189;51.240;9.964;2023-03-14T09:25:57;95489.72;;;8.78;100.00
54910;BME280;63189;51.240;9.964;2023-03-14T09:28:23;95483.97;;;8.73;100.00
54910;BME280;63189;51.240;9.964;2023-03-14T09:30:48;95500.03;;;8.80;100.00
54910;BME280;63189;51.240;9.964;2023-03-14T09:33:15;95484.53;;;8.78;100.00
54910;BME280;63189;51.240;9.964;2023-03-14T09:35:40;95507.25;;;8.89;100.00
54910;BME280;63189;51.240;9.964;2023-03-14T09:38:06;95491.75;;;8.87;100.00
54910;BME280;63189;51.240;9.964;2023-03-14T09:40:34;95486.72;;;8.84;100.00
54910;BME280;63189;51.240;9.964;2023-03-14T09:43:00;95479.78;;;8.85;100.00
54910;BME280;63189;51.240;9.964;2023-03-14T09:45:29;95498.22;;;8.94;100.00
54910;BME280;63189;51.240;9.964;2023-03-14T09:47:57;95504.16;;;8.96;100.00
54910;BME280;63189;51.240;9.964;2023-03-14T09:50:23;95496.44;;;8.95;100.00
54910;BME280;63189;51.240;9.964;2023-03-14T09:52:54;95488.59;;;8.96;100.00
54910;BME280;63189;51.240;9.964;2023-03-14T09:55:22;95503.75;;;9.03;100.00
54910;BME280;63189;51.240;9.964;2023-03-14T09:57:49;95501.91;;;9.05;100.00
54910;BME280;63189;51.240;9.964;2023-03-14T10:00:22;95501.53;;;9.11;100.00
54910;BME280;63189;51.240;9.964;2023-03-14T10:02:58;95517.31;;;9.08;100.00
54910;BME280;63189;51.240;9.964;2023-03-14T10:05:25;95501.47;;;8.98;100.00
54910;BME280;63189;51.240;9.964;2023-03-14T10:07:52;95471.81;;;8.88;100.00
54910;BME280;63189;51.240;9.964;2023-03-14T10:10:24;95505.25;;;9.07;100.00
54910;BME280;63189;51.240;9.964;2023-03-14T10:13:26;95511.28;;;9.07;100.00
54910;BME280;63189;51.240;9.964;2023-03-14T10:15:55;95449.88;;;8.65;100.00
54910;BME280;63189;51.240;9.964;2023-03-14T10:18:23;95500.56;;;8.85;100.00
54910;BME280;63189;51.240;9.964;2023-03-14T10:20:51;95496.75;;;8.90;100.00
54910;BME280;63189;51.240;9.964;2023-03-14T10:23:28;95502.16;;;8.87;100.00
54910;BME280;63189;51.240;9.964;2023-03-14T10:26:18;95496.13;;;8.87;100.00
54910;BME280;63189;51.240;9.964;2023-03-14T10:28:52;95485.41;;;8.91;100.00
54910;BME280;63189;51.240;9.964;2023-03-14T10:31:17;95497.28;;;8.95;100.00
54910;BME280;63189;51.240;9.964;2023-03-14T10:34:01;95495.81;;;8.91;100.00
54910;BME280;63189;51.240;9.964;2023-03-14T10:36:27;95492.91;;;8.96;100.00
54910;BME280;63189;51.240;9.964;2023-03-14T10:44:43;95480.69;;;8.98;100.00
54910;BME280;63189;51.240;9.964;2023-03-14T10:47:17;95499.13;;;9.08;100.00
54910;BME280;63189;51.240;9.964;2023-03-14T10:49:43;95486.16;;;9.20;100.00
54910;BME280;63189;51.240;9.964;2023-03-14T10:54:34;95467.94;;;9.08;100.00
54910;BME280;63189;51.240;9.964;2023-03-14T10:57:01;95477.22;;;9.24;100.00
54910;BME280;63189;51.240;9.964;2023-03-14T10:59:36;95486.41;;;9.30;100.00
54910;BME280;63189;51.240;9.964;2023-03-14T11:07:39;95483.41;;;9.36;100.00
54910;BME280;63189;51.240;9.964;2023-03-14T11:10:34;95477.69;;;9.31;100.00
54910;BME280;63189;51.240;9.964;2023-03-14T11:15:59;95484.88;;;9.40;100.00
54910;BME280;63189;51.240;9.964;2023-03-14T11:18:43;95479.34;;;9.32;100.00
54910;BME280;63189;51.240;9.964;2023-03-14T11:21:18;95494.97;;;9.45;100.00
54910;BME280;63189;51.240;9.964;2023-03-14T11:26:37;95484.59;;;9.58;100.00
54910;BME280;63189;51.240;9.964;2023-03-14T11:29:20;95475.94;;;9.57;99.43
54910;BME280;63189;51.240;9.964;2023-03-14T11:31:46;95480.44;;;9.68;99.99
54910;BME280;63189;51.240;9.964;2023-03-14T11:34:28;95483.88;;;9.68;98.92
54910;BME280;63189;51.240;9.964;2023-03-14T11:37:13;95486.91;;;9.75;99.10
54910;BME280;63189;51.240;9.964;2023-03-14T11:39:43;95483.16;;;9.79;97.45
54910;BME280;63189;51.240;9.964;2023-03-14T11:42:13;95463.00;;;9.82;96.33
54910;BME280;63189;51.240;9.964;2023-03-14T11:44:40;95461.84;;;9.87;97.38
54910;BME280;63189;51.240;9.964;2023-03-14T11:47:21;95467.88;;;9.87;96.92
54910;BME280;63189;51.240;9.964;2023-03-14T11:52:50;95459.03;;;10.02;96.65
54910;BME280;63189;51.240;9.964;2023-03-14T11:55:30;95465.69;;;10.06;96.24
54910;BME280;63189;51.240;9.964;2023-03-14T11:58:01;95451.75;;;10.07;95.98
54910;BME280;63189;51.240;9.964;2023-03-14T12:00:28;95456.00;;;10.08;95.22
54910;BME280;63189;51.240;9.964;2023-03-14T12:03:17;95452.69;;;10.06;95.81
54910;BME280;63189;51.240;9.964;2023-03-14T12:06:13;95457.88;;;10.06;96.69
54910;BME280;63189;51.240;9.964;2023-03-14T12:08:52;95451.34;;;10.01;100.00
54910;BME280;63189;51.240;9.964;2023-03-14T12:11:39;95465.09;;;9.90;100.00
54910;BME280;63189;51.240;9.964;2023-03-14T12:16:55;95464.03;;;9.80;99.22
54910;BME280;63189;51.240;9.964;2023-03-14T12:22:00;95469.31;;;9.78;100.00
54910;BME280;63189;51.240;9.964;2023-03-14T12:24:29;95464.84;;;9.68;100.00
54910;BME280;63189;51.240;9.964;2023-03-14T12:26:57;95453.38;;;9.58;100.00
54910;BME280;63189;51.240;9.964;2023-03-14T12:29:23;95469.09;;;9.56;100.00
54910;BME280;63189;51.240;9.964;2023-03-14T12:32:07;95480.03;;;9.48;100.00
54910;BME280;63189;51.240;9.964;2023-03-14T12:34:40;95452.66;;;9.16;100.00
54910;BME280;63189;51.240;9.964;2023-03-14T12:40:12;95489.28;;;9.25;100.00
54910;BME280;63189;51.240;9.964;2023-03-14T12:42:51;95493.13;;;9.20;100.00
54910;BME280;63189;51.240;9.964;2023-03-14T12:48:11;95494.66;;;9.10;100.00
54910;BME280;63189;51.240;9.964;2023-03-14T12:50:43;95501.56;;;8.96;100.00
54910;BME280;63189;51.240;9.964;2023-03-14T12:58:48;95583.53;;;8.59;100.00
54910;BME280;63189;51.240;9.964;2023-03-14T13:01:19;95580.66;;;8.35;100.00
54910;BME280;63189;51.240;9.964;2023-03-14T13:03:50;95595.81;;;8.27;100.00
54910;BME280;63189;51.240;9.964;2023-03-14T13:06:49;95621.91;;;8.10;100.00
54910;BME280;63189;51.240;9.964;2023-03-14T13:12:00;95621.78;;;7.67;100.00
54910;BME280;63189;51.240;9.964;2023-03-14T13:14:28;95624.81;;;7.44;100.00
54910;BME280;63189;51.240;9.964;2023-03-14T13:16:54;95627.81;;;7.36;100.00
54910;BME280;63189;51.240;9.964;2023-03-14T13:19:26;95649.56;;;7.49;100.00
54910;BME280;63189;51.240;9.964;2023-03-14T13:22:19;95610.63;;;7.19;100.00
54910;BME280;63189;51.240;9.964;2023-03-14T13:24:45;95583.03;;;7.03;100.00
54910;BME280;63189;51.240;9.964;2023-03-14T13:27:18;95646.47;;;7.27;100.00
54910;BME280;63189;51.240;9.964;2023-03-14T13:29:48;95669.72;;;7.29;100.00
54910;BME280;63189;51.240;9.964;2023-03-14T13:32:27;95684.03;;;7.20;100.00
54910;BME280;63189;51.240;9.964;2023-03-14T13:34:58;95690.44;;;7.13;100.00
54910;BME280;63189;51.240;9.964;2023-03-14T13:37:25;95715.25;;;7.17;100.00
54910;BME280;63189;51.240;9.964;2023-03-14T13:39:56;95717.22;;;6.96;100.00
54910;BME280;63189;51.240;9.964;2023-03-14T13:42:27;95704.03;;;6.68;100.00
54910;BME280;63189;51.240;9.964;2023-03-14T13:44:56;95776.31;;;6.72;100.00
54910;BME280;63189;51.240;9.964;2023-03-14T13:47:24;95783.22;;;6.37;100.00
54910;BME280;63189;51.240;9.964;2023-03-14T13:49:50;95820.47;;;6.16;100.00
54910;BME280;63189;51.240;9.964;2023-03-14T13:52:36;95799.59;;;5.64;100.00
54910;BME280;63189;51.240;9.964;2023-03-14T13:55:13;95822.91;;;5.43;100.00
54910;BME280;63189;51.240;9.964;2023-03-14T13:57:49;95863.97;;;5.49;100.00